sensor_id;sensor_type;location;lat;lon;timestamp;temperature;humidity
32614;DHT22;19031;51.400;6.770;2022-08-21T00:00:53;18.40;61.70
32614;DHT22;19031;51.400;6.770;2022-08-21T00:03:18;18.40;63.60
32614;DHT22;19031;51.400;6.770;2022-08-21T00:05:47;18.40;64.90
32614;DHT22;19031;51.400;6.770;2022-08-21T00:08:18;18.30;61.20
32614;DHT22;19031;51.400;6.770;2022-08-21T00:10:44;18.40;64.40
32614;DHT22;19031;51.400;6.770;2022-08-21T00:13:11;18.30;68.80
32614;DHT22;19031;51.400;6.770;2022-08-21T00:15:38;18.40;68.00
32614;DHT22;19031;51.400;6.770;2022-08-21T00:18:06;18.40;67.80
32614;DHT22;19031;51.400;6.770;2022-08-21T00:20:34;18.40;68.80
32614;DHT22;19031;51.400;6.770;2022-08-21T00:23:00;18.40;67.70
32614;DHT22;19031;51.400;6.770;2022-08-21T00:25:26;18.40;73.60
32614;DHT22;19031;51.400;6.770;2022-08-21T00:27:53;18.40;76.40
32614;DHT22;19031;51.400;6.770;2022-08-21T00:30:20;18.40;82.00
32614;DHT22;19031;51.400;6.770;2022-08-21T00:32:46;18.40;84.60
32614;DHT22;19031;51.400;6.770;2022-08-21T00:35:16;18.30;78.90
32614;DHT22;19031;51.400;6.770;2022-08-21T00:37:42;18.20;70.60
32614;DHT22;19031;51.400;6.770;2022-08-21T00:40:12;18.20;76.00
32614;DHT22;19031;51.400;6.770;2022-08-21T00:42:40;18.10;76.90
32614;DHT22;19031;51.400;6.770;2022-08-21T00:45:07;18.10;67.10
32614;DHT22;19031;51.400;6.770;2022-08-21T00:47:33;18.10;64.00
32614;DHT22;19031;51.400;6.770;2022-08-21T00:49:59;17.90;64.40
32614;DHT22;19031;51.400;6.770;2022-08-21T00:52:28;17.90;61.10
32614;DHT22;19031;51.400;6.770;2022-08-21T00:54:56;17.90;59.10
32614;DHT22;19031;51.400;6.770;2022-08-21T00:57:27;17.70;71.90
32614;DHT22;19031;51.400;6.770;2022-08-21T00:59:56;17.60;64.30
32614;DHT22;19031;51.400;6.770;2022-08-21T01:02:22;17.60;62.80
32614;DHT22;19031;51.400;6.770;2022-08-21T01:04:48;17.50;67.90
32614;DHT22;19031;51.400;6.770;2022-08-21T01:07:14;17.40;74.20
32614;DHT22;19031;51.400;6.770;2022-08-21T01:09:41;17.30;79.20
32614;DHT22;19031;51.400;6.770;2022-08-21T01:12:07;17.20;85.50
32614;DHT22;19031;51.400;6.770;2022-08-21T01:14:33;17.20;81.00
32614;DHT22;19031;51.400;6.770;2022-08-21T01:17:00;17.10;78.60
32614;DHT22;19031;51.400;6.770;2022-08-21T01:19:26;17.00;83.70
32614;DHT22;19031;51.400;6.770;2022-08-21T01:21:52;17.00;86.80
32614;DHT22;19031;51.400;6.770;2022-08-21T01:24:19;16.90;87.90
32614;DHT22;19031;51.400;6.770;2022-08-21T01:26:45;16.90;84.00
32614;DHT22;19031;51.400;6.770;2022-08-21T01:29:29;16.80;83.90
32614;DHT22;19031;51.400;6.770;2022-08-21T01:31:56;16.80;87.20
32614;DHT22;19031;51.400;6.770;2022-08-21T01:34:21;16.60;90.40
32614;DHT22;19031;51.400;6.770;2022-08-21T01:36:47;16.60;84.90
32614;DHT22;19031;51.400;6.770;2022-08-21T01:39:14;16.50;87.70
32614;DHT22;19031;51.400;6.770;2022-08-21T01:41:40;16.50;89.70
32614;DHT22;19031;51.400;6.770;2022-08-21T01:44:06;16.50;91.40
32614;DHT22;19031;51.400;6.770;2022-08-21T01:46:32;16.40;90.90
32614;DHT22;19031;51.400;6.770;2022-08-21T01:48:58;16.40;88.50
32614;DHT22;19031;51.400;6.770;2022-08-21T01:51:24;16.40;86.20
32614;DHT22;19031;51.400;6.770;2022-08-21T01:53:49;16.30;85.90
32614;DHT22;19031;51.400;6.770;2022-08-21T01:56:16;16.40;86.60
32614;DHT22;19031;51.400;6.770;2022-08-21T01:58:45;16.30;88.00
32614;DHT22;19031;51.400;6.770;2022-08-21T02:01:10;16.20;93.80
32614;DHT22;19031;51.400;6.770;2022-08-21T02:03:37;16.00;98.00
32614;DHT22;19031;51.400;6.770;2022-08-21T02:06:06;16.00;95.10
32614;DHT22;19031;51.400;6.770;2022-08-21T02:08:32;16.00;92.90
32614;DHT22;19031;51.400;6.770;2022-08-21T02:10:59;16.00;93.20
32614;DHT22;19031;51.400;6.770;2022-08-21T02:13:25;16.00;93.10
32614;DHT22;19031;51.400;6.770;2022-08-21T02:15:51;16.00;93.50
32614;DHT22;19031;51.400;6.770;2022-08-21T02:18:17;16.00;94.40
32614;DHT22;19031;51.400;6.770;2022-08-21T02:20:46;16.00;97.20
32614;DHT22;19031;51.400;6.770;2022-08-21T02:23:13;16.00;95.90
32614;DHT22;19031;51.400;6.770;2022-08-21T02:25:39;16.00;97.00
32614;DHT22;19031;51.400;6.770;2022-08-21T02:28:08;16.00;97.50
32614;DHT22;19031;51.400;6.770;2022-08-21T02:30:38;16.10;96.60
32614;DHT22;19031;51.400;6.770;2022-08-21T02:33:07;16.00;95.70
32614;DHT22;19031;51.400;6.770;2022-08-21T02:35:33;16.10;97.70
32614;DHT22;19031;51.400;6.770;2022-08-21T02:38:02;16.10;96.80
32614;DHT22;19031;51.400;6.770;2022-08-21T02:40:31;16.10;96.70
32614;DHT22;19031;51.400;6.770;2022-08-21T02:43:01;16.10;96.60
32614;DHT22;19031;51.400;6.770;2022-08-21T02:45:27;16.00;97.90
32614;DHT22;19031;51.400;6.770;2022-08-21T02:48:00;16.00;96.90
32614;DHT22;19031;51.400;6.770;2022-08-21T02:50:32;15.90;98.40
32614;DHT22;19031;51.400;6.770;2022-08-21T02:52:58;15.90;95.80
32614;DHT22;19031;51.400;6.770;2022-08-21T02:55:27;15.90;94.40
32614;DHT22;19031;51.400;6.770;2022-08-21T02:57:54;15.90;94.60
32614;DHT22;19031;51.400;6.770;2022-08-21T03:00:22;15.90;95.80
32614;DHT22;19031;51.400;6.770;2022-08-21T03:02:48;15.80;93.40
32614;DHT22;19031;51.400;6.770;2022-08-21T03:05:15;15.90;94.80
32614;DHT22;19031;51.400;6.770;2022-08-21T03:07:43;15.70;95.90
32614;DHT22;19031;51.400;6.770;2022-08-21T03:10:09;15.80;96.30
32614;DHT22;19031;51.400;6.770;2022-08-21T03:12:35;15.70;96.40
32614;DHT22;19031;51.400;6.770;2022-08-21T03:15:05;15.60;96.00
32614;DHT22;19031;51.400;6.770;2022-08-21T03:17:32;15.60;96.10
32614;DHT22;19031;51.400;6.770;2022-08-21T03:19:58;15.60;95.40
32614;DHT22;19031;51.400;6.770;2022-08-21T03:22:24;15.50;96.60
32614;DHT22;19031;51.400;6.770;2022-08-21T03:24:49;15.50;97.40
32614;DHT22;19031;51.400;6.770;2022-08-21T03:27:15;15.40;96.90
32614;DHT22;19031;51.400;6.770;2022-08-21T03:29:41;15.40;96.00
32614;DHT22;19031;51.400;6.770;2022-08-21T03:32:06;15.50;95.40
32614;DHT22;19031;51.400;6.770;2022-08-21T03:34:35;15.50;98.10
32614;DHT22;19031;51.400;6.770;2022-08-21T03:37:02;15.40;97.20
32614;DHT22;19031;51.400;6.770;2022-08-21T03:39:27;15.40;98.20
32614;DHT22;19031;51.400;6.770;2022-08-21T03:41:53;15.30;98.10
32614;DHT22;19031;51.400;6.770;2022-08-21T03:44:19;15.30;99.40
32614;DHT22;19031;51.400;6.770;2022-08-21T03:46:45;15.30;97.40
32614;DHT22;19031;51.400;6.770;2022-08-21T03:49:10;15.20;96.80
32614;DHT22;19031;51.400;6.770;2022-08-21T03:51:36;15.20;96.50
32614;DHT22;19031;51.400;6.770;2022-08-21T03:54:02;15.20;96.70
32614;DHT22;19031;51.400;6.770;2022-08-21T03:56:28;15.20;97.90
32614;DHT22;19031;51.400;6.770;2022-08-21T03:58:54;15.20;98.40
32614;DHT22;19031;51.400;6.770;2022-08-21T04:01:19;15.00;99.80
32614;DHT22;19031;51.400;6.770;2022-08-21T04:03:45;15.10;98.60
32614;DHT22;19031;51.400;6.770;2022-08-21T04:06:11;15.00;97.90
32614;DHT22;19031;51.400;6.770;2022-08-21T04:08:36;15.10;97.20
32614;DHT22;19031;51.400;6.770;2022-08-21T04:11:02;15.10;95.70
32614;DHT22;19031;51.400;6.770;2022-08-21T04:13:28;15.00;98.40
32614;DHT22;19031;51.400;6.770;2022-08-21T04:15:54;15.00;98.90
32614;DHT22;19031;51.400;6.770;2022-08-21T04:18:20;15.00;99.90
32614;DHT22;19031;51.400;6.770;2022-08-21T04:20:49;15.00;99.90
32614;DHT22;19031;51.400;6.770;2022-08-21T04:23:15;15.00;99.90
32614;DHT22;19031;51.400;6.770;2022-08-21T04:25:41;15.00;99.90
32614;DHT22;19031;51.400;6.770;2022-08-21T04:28:06;15.10;99.90
32614;DHT22;19031;51.400;6.770;2022-08-21T04:30:32;15.00;99.90
32614;DHT22;19031;51.400;6.770;2022-08-21T04:32:58;15.10;99.90
32614;DHT22;19031;51.400;6.770;2022-08-21T04:35:26;15.00;99.90
32614;DHT22;19031;51.400;6.770;2022-08-21T04:37:51;15.10;99.90
32614;DHT22;19031;51.400;6.770;2022-08-21T04:40:19;15.10;99.90
32614;DHT22;19031;51.400;6.770;2022-08-21T04:42:49;15.10;99.90
32614;DHT22;19031;51.400;6.770;2022-08-21T04:45:25;15.00;99.90
32614;DHT22;19031;51.400;6.770;2022-08-21T04:47:54;15.10;99.90
32614;DHT22;19031;51.400;6.770;2022-08-21T04:50:22;15.10;99.90
32614;DHT22;19031;51.400;6.770;2022-08-21T04:52:48;15.10;99.40
32614;DHT22;19031;51.400;6.770;2022-08-21T04:55:16;15.10;99.90
32614;DHT22;19031;51.400;6.770;2022-08-21T04:57:42;15.20;99.90
32614;DHT22;19031;51.400;6.770;2022-08-21T05:00:08;15.20;99.40
32614;DHT22;19031;51.400;6.770;2022-08-21T05:02:36;15.20;99.50
32614;DHT22;19031;51.400;6.770;2022-08-21T05:05:01;15.10;99.90
32614;DHT22;19031;51.400;6.770;2022-08-21T05:07:29;15.20;99.70
32614;DHT22;19031;51.400;6.770;2022-08-21T05:09:55;15.10;99.90
32614;DHT22;19031;51.400;6.770;2022-08-21T05:12:22;15.10;99.90
32614;DHT22;19031;51.400;6.770;2022-08-21T05:14:47;15.20;99.90
32614;DHT22;19031;51.400;6.770;2022-08-21T05:17:13;15.20;99.90
32614;DHT22;19031;51.400;6.770;2022-08-21T05:19:39;15.30;99.90
32614;DHT22;19031;51.400;6.770;2022-08-21T05:22:05;15.30;99.90
32614;DHT22;19031;51.400;6.770;2022-08-21T05:24:31;15.30;99.90
32614;DHT22;19031;51.400;6.770;2022-08-21T05:26:57;15.40;99.90
32614;DHT22;19031;51.400;6.770;2022-08-21T05:29:23;15.40;99.90
32614;DHT22;19031;51.400;6.770;2022-08-21T05:31:49;15.50;99.90
32614;DHT22;19031;51.400;6.770;2022-08-21T05:34:19;15.40;99.90
32614;DHT22;19031;51.400;6.770;2022-08-21T05:36:45;15.40;99.90
32614;DHT22;19031;51.400;6.770;2022-08-21T05:39:11;15.60;99.90
32614;DHT22;19031;51.400;6.770;2022-08-21T05:41:37;15.50;99.90
32614;DHT22;19031;51.400;6.770;2022-08-21T05:44:03;15.60;99.90
32614;DHT22;19031;51.400;6.770;2022-08-21T05:46:29;15.70;99.90
32614;DHT22;19031;51.400;6.770;2022-08-21T05:48:54;15.80;99.90
32614;DHT22;19031;51.400;6.770;2022-08-21T05:51:20;15.80;99.90
32614;DHT22;19031;51.400;6.770;2022-08-21T05:53:46;15.90;99.90
32614;DHT22;19031;51.400;6.770;2022-08-21T05:56:12;15.90;99.90
32614;DHT22;19031;51.400;6.770;2022-08-21T05:58:38;16.00;99.90
32614;DHT22;19031;51.400;6.770;2022-08-21T06:01:04;16.10;99.90
32614;DHT22;19031;51.400;6.770;2022-08-21T06:03:33;16.20;99.90
32614;DHT22;19031;51.400;6.770;2022-08-21T06:06:00;16.20;99.90
32614;DHT22;19031;51.400;6.770;2022-08-21T06:08:26;16.30;99.90
32614;DHT22;19031;51.400;6.770;2022-08-21T06:10:53;16.50;99.70
32614;DHT22;19031;51.400;6.770;2022-08-21T06:13:20;16.50;98.10
32614;DHT22;19031;51.400;6.770;2022-08-21T06:15:46;16.50;97.50
32614;DHT22;19031;51.400;6.770;2022-08-21T06:18:12;16.70;96.40
32614;DHT22;19031;51.400;6.770;2022-08-21T06:20:38;16.70;93.60
32614;DHT22;19031;51.400;6.770;2022-08-21T06:23:04;16.80;91.70
32614;DHT22;19031;51.400;6.770;2022-08-21T06:25:30;16.80;89.90
32614;DHT22;19031;51.400;6.770;2022-08-21T06:28:07;16.90;89.20
32614;DHT22;19031;51.400;6.770;2022-08-21T06:30:34;17.00;85.50
32614;DHT22;19031;51.400;6.770;2022-08-21T06:33:00;17.20;86.90
32614;DHT22;19031;51.400;6.770;2022-08-21T06:35:27;17.30;78.90
32614;DHT22;19031;51.400;6.770;2022-08-21T06:37:54;17.40;77.20
32614;DHT22;19031;51.400;6.770;2022-08-21T06:40:20;17.50;69.60
32614;DHT22;19031;51.400;6.770;2022-08-21T06:42:46;17.60;67.30
32614;DHT22;19031;51.400;6.770;2022-08-21T06:45:12;17.70;62.70
32614;DHT22;19031;51.400;6.770;2022-08-21T06:47:38;17.90;62.80
32614;DHT22;19031;51.400;6.770;2022-08-21T06:50:04;18.10;55.40
32614;DHT22;19031;51.400;6.770;2022-08-21T06:52:33;18.20;45.50
32614;DHT22;19031;51.400;6.770;2022-08-21T06:54:59;18.30;39.40
32614;DHT22;19031;51.400;6.770;2022-08-21T06:57:25;18.60;35.70
32614;DHT22;19031;51.400;6.770;2022-08-21T06:59:51;18.70;30.00
32614;DHT22;19031;51.400;6.770;2022-08-21T07:02:16;19.00;23.20
32614;DHT22;19031;51.400;6.770;2022-08-21T07:04:43;19.20;13.70
32614;DHT22;19031;51.400;6.770;2022-08-21T07:07:08;19.30;12.50
32614;DHT22;19031;51.400;6.770;2022-08-21T07:09:34;19.60;1.00
32614;DHT22;19031;51.400;6.770;2022-08-21T07:12:00;19.60;1.00
32614;DHT22;19031;51.400;6.770;2022-08-21T07:14:26;19.70;1.00
32614;DHT22;19031;51.400;6.770;2022-08-21T07:16:51;19.90;1.00
32614;DHT22;19031;51.400;6.770;2022-08-21T07:19:17;20.10;1.00
32614;DHT22;19031;51.400;6.770;2022-08-21T07:21:43;20.50;1.00
32614;DHT22;19031;51.400;6.770;2022-08-21T07:24:09;20.60;1.00
32614;DHT22;19031;51.400;6.770;2022-08-21T07:26:35;20.80;1.00
32614;DHT22;19031;51.400;6.770;2022-08-21T07:29:00;21.00;1.00
32614;DHT22;19031;51.400;6.770;2022-08-21T07:31:26;21.30;1.00
32614;DHT22;19031;51.400;6.770;2022-08-21T07:33:52;21.80;99.90
32614;DHT22;19031;51.400;6.770;2022-08-21T07:36:18;22.10;99.90
32614;DHT22;19031;51.400;6.770;2022-08-21T07:38:44;22.30;99.90
32614;DHT22;19031;51.400;6.770;2022-08-21T07:41:20;22.30;99.90
32614;DHT22;19031;51.400;6.770;2022-08-21T07:43:46;22.20;99.90
32614;DHT22;19031;51.400;6.770;2022-08-21T07:46:12;22.20;99.90
32614;DHT22;19031;51.400;6.770;2022-08-21T07:48:38;22.10;99.90
32614;DHT22;19031;51.400;6.770;2022-08-21T07:51:10;22.10;99.90
32614;DHT22;19031;51.400;6.770;2022-08-21T07:53:37;22.20;99.90
32614;DHT22;19031;51.400;6.770;2022-08-21T07:56:04;22.30;99.90
32614;DHT22;19031;51.400;6.770;2022-08-21T07:58:31;22.60;99.90
32614;DHT22;19031;51.400;6.770;2022-08-21T08:00:56;22.70;51.60
32614;DHT22;19031;51.400;6.770;2022-08-21T08:03:22;22.70;1.00
32614;DHT22;19031;51.400;6.770;2022-08-21T08:05:49;22.90;99.90
32614;DHT22;19031;51.400;6.770;2022-08-21T08:08:15;22.80;99.90
32614;DHT22;19031;51.400;6.770;2022-08-21T08:10:41;23.00;99.90
32614;DHT22;19031;51.400;6.770;2022-08-21T08:13:07;23.20;99.90
32614;DHT22;19031;51.400;6.770;2022-08-21T08:15:32;23.40;99.90
32614;DHT22;19031;51.400;6.770;2022-08-21T08:17:58;23.70;1.00
32614;DHT22;19031;51.400;6.770;2022-08-21T08:20:24;23.80;99.90
32614;DHT22;19031;51.400;6.770;2022-08-21T08:22:53;23.90;1.00
32614;DHT22;19031;51.400;6.770;2022-08-21T08:25:20;23.80;99.90
32614;DHT22;19031;51.400;6.770;2022-08-21T08:27:47;24.10;99.90
32614;DHT22;19031;51.400;6.770;2022-08-21T08:30:15;24.50;1.00
32614;DHT22;19031;51.400;6.770;2022-08-21T08:32:42;24.70;99.90
32614;DHT22;19031;51.400;6.770;2022-08-21T08:35:08;25.00;99.90
32614;DHT22;19031;51.400;6.770;2022-08-21T08:37:35;24.90;99.90
32614;DHT22;19031;51.400;6.770;2022-08-21T08:40:04;25.20;1.00
32614;DHT22;19031;51.400;6.770;2022-08-21T08:42:34;25.50;1.00
32614;DHT22;19031;51.400;6.770;2022-08-21T08:45:10;25.80;99.90
32614;DHT22;19031;51.400;6.770;2022-08-21T08:47:44;26.10;67.30
32614;DHT22;19031;51.400;6.770;2022-08-21T08:50:23;26.00;1.00
32614;DHT22;19031;51.400;6.770;2022-08-21T08:52:54;26.30;99.90
32614;DHT22;19031;51.400;6.770;2022-08-21T08:55:44;26.50;99.90
32614;DHT22;19031;51.400;6.770;2022-08-21T08:58:34;26.80;99.90
32614;DHT22;19031;51.400;6.770;2022-08-21T09:01:13;26.80;99.90
32614;DHT22;19031;51.400;6.770;2022-08-21T09:03:40;26.50;99.90
32614;DHT22;19031;51.400;6.770;2022-08-21T09:17:25;26.60;99.90
32614;DHT22;19031;51.400;6.770;2022-08-21T09:25:22;27.10;22.80
32614;DHT22;19031;51.400;6.770;2022-08-21T09:27:49;27.40;1.00
32614;DHT22;19031;51.400;6.770;2022-08-21T09:30:17;27.70;99.90
32614;DHT22;19031;51.400;6.770;2022-08-21T09:32:43;27.80;99.90
32614;DHT22;19031;51.400;6.770;2022-08-21T09:35:13;28.00;99.90
32614;DHT22;19031;51.400;6.770;2022-08-21T09:38:06;28.40;99.40
32614;DHT22;19031;51.400;6.770;2022-08-21T09:40:45;28.40;1.00
32614;DHT22;19031;51.400;6.770;2022-08-21T09:45:38;28.40;1.00
32614;DHT22;19031;51.400;6.770;2022-08-21T09:48:17;28.60;1.00
32614;DHT22;19031;51.400;6.770;2022-08-21T09:50:43;28.80;99.90
32614;DHT22;19031;51.400;6.770;2022-08-21T09:53:26;28.90;99.90
32614;DHT22;19031;51.400;6.770;2022-08-21T09:56:26;28.70;99.90
32614;DHT22;19031;51.400;6.770;2022-08-21T09:59:31;29.10;99.90
32614;DHT22;19031;51.400;6.770;2022-08-21T10:01:59;29.60;99.90
32614;DHT22;19031;51.400;6.770;2022-08-21T10:04:32;29.70;99.90
32614;DHT22;19031;51.400;6.770;2022-08-21T10:07:13;29.80;99.90
32614;DHT22;19031;51.400;6.770;2022-08-21T10:09:40;29.80;99.90
32614;DHT22;19031;51.400;6.770;2022-08-21T10:12:29;29.90;99.90
32614;DHT22;19031;51.400;6.770;2022-08-21T10:15:28;30.20;99.90
32614;DHT22;19031;51.400;6.770;2022-08-21T10:18:14;30.30;99.90
32614;DHT22;19031;51.400;6.770;2022-08-21T10:32:05;30.20;94.80
32614;DHT22;19031;51.400;6.770;2022-08-21T10:37:31;30.20;99.90
32614;DHT22;19031;51.400;6.770;2022-08-21T10:56:23;30.50;92.60
32614;DHT22;19031;51.400;6.770;2022-08-21T11:01:43;30.30;67.80
32614;DHT22;19031;51.400;6.770;2022-08-21T11:06:49;30.30;77.00
32614;DHT22;19031;51.400;6.770;2022-08-21T11:09:20;30.30;63.20
32614;DHT22;19031;51.400;6.770;2022-08-21T11:17:00;30.20;75.70
32614;DHT22;19031;51.400;6.770;2022-08-21T11:19:59;30.20;82.30
32614;DHT22;19031;51.400;6.770;2022-08-21T11:22:33;29.90;83.80
32614;DHT22;19031;51.400;6.770;2022-08-21T11:25:00;30.00;93.70
32614;DHT22;19031;51.400;6.770;2022-08-21T11:27:30;29.90;94.80
32614;DHT22;19031;51.400;6.770;2022-08-21T11:29:59;30.20;87.60
32614;DHT22;19031;51.400;6.770;2022-08-21T11:38:41;31.00;21.00
32614;DHT22;19031;51.400;6.770;2022-08-21T11:41:30;31.00;16.50
32614;DHT22;19031;51.400;6.770;2022-08-21T11:44:30;31.30;4.20
32614;DHT22;19031;51.400;6.770;2022-08-21T11:47:11;31.20;1.00
32614;DHT22;19031;51.400;6.770;2022-08-21T11:52:21;31.70;1.00
32614;DHT22;19031;51.400;6.770;2022-08-21T11:55:05;31.40;1.00
32614;DHT22;19031;51.400;6.770;2022-08-21T11:57:41;32.20;15.20
32614;DHT22;19031;51.400;6.770;2022-08-21T12:02:53;33.50;1.00
32614;DHT22;19031;51.400;6.770;2022-08-21T12:05:40;34.10;1.00
32614;DHT22;19031;51.400;6.770;2022-08-21T12:08:14;34.40;1.00
32614;DHT22;19031;51.400;6.770;2022-08-21T12:10:46;34.40;1.00
32614;DHT22;19031;51.400;6.770;2022-08-21T12:13:24;34.40;99.90
32614;DHT22;19031;51.400;6.770;2022-08-21T12:15:51;34.30;99.90
32614;DHT22;19031;51.400;6.770;2022-08-21T12:18:29;33.90;99.90
32614;DHT22;19031;51.400;6.770;2022-08-21T12:21:17;33.70;99.90
32614;DHT22;19031;51.400;6.770;2022-08-21T12:24:17;33.60;99.90
32614;DHT22;19031;51.400;6.770;2022-08-21T12:26:58;33.10;99.90
32614;DHT22;19031;51.400;6.770;2022-08-21T12:29:29;32.70;99.90
32614;DHT22;19031;51.400;6.770;2022-08-21T12:31:56;32.70;99.90
32614;DHT22;19031;51.400;6.770;2022-08-21T12:34:36;32.80;99.90
32614;DHT22;19031;51.400;6.770;2022-08-21T12:37:09;33.20;99.90
32614;DHT22;19031;51.400;6.770;2022-08-21T12:39:38;33.40;99.90
32614;DHT22;19031;51.400;6.770;2022-08-21T12:42:16;33.60;99.90
32614;DHT22;19031;51.400;6.770;2022-08-21T12:44:48;33.70;99.90
32614;DHT22;19031;51.400;6.770;2022-08-21T12:47:34;34.00;99.90
32614;DHT22;19031;51.400;6.770;2022-08-21T12:50:13;34.60;99.90
32614;DHT22;19031;51.400;6.770;2022-08-21T12:52:45;35.00;99.90
32614;DHT22;19031;51.400;6.770;2022-08-21T12:55:15;34.80;99.90
32614;DHT22;19031;51.400;6.770;2022-08-21T12:57:43;34.00;99.90
32614;DHT22;19031;51.400;6.770;2022-08-21T13:00:12;33.80;99.90
32614;DHT22;19031;51.400;6.770;2022-08-21T13:02:43;34.10;99.90
32614;DHT22;19031;51.400;6.770;2022-08-21T13:05:15;34.10;99.90
32614;DHT22;19031;51.400;6.770;2022-08-21T13:07:46;33.80;99.90
32614;DHT22;19031;51.400;6.770;2022-08-21T13:12:43;33.00;99.90
32614;DHT22;19031;51.400;6.770;2022-08-21T13:15:11;33.00;99.90
32614;DHT22;19031;51.400;6.770;2022-08-21T13:17:40;33.20;99.90
32614;DHT22;19031;51.400;6.770;2022-08-21T13:20:27;33.00;99.90
32614;DHT22;19031;51.400;6.770;2022-08-21T13:22:55;33.50;99.90
32614;DHT22;19031;51.400;6.770;2022-08-21T13:25:27;33.90;99.90
32614;DHT22;19031;51.400;6.770;2022-08-21T13:28:06;33.80;99.90
32614;DHT22;19031;51.400;6.770;2022-08-21T13:30:33;33.90;99.90
32614;DHT22;19031;51.400;6.770;2022-08-21T13:33:00;34.00;99.90
32614;DHT22;19031;51.400;6.770;2022-08-21T13:38:28;33.70;99.90
32614;DHT22;19031;51.400;6.770;2022-08-21T13:40:58;33.80;99.90
32614;DHT22;19031;51.400;6.770;2022-08-21T13:43:32;33.80;99.90
32614;DHT22;19031;51.400;6.770;2022-08-21T13:45:58;33.90;99.90
32614;DHT22;19031;51.400;6.770;2022-08-21T13:48:28;34.10;99.90
32614;DHT22;19031;51.400;6.770;2022-08-21T13:50:56;34.30;99.90
32614;DHT22;19031;51.400;6.770;2022-08-21T13:53:29;34.30;99.90
32614;DHT22;19031;51.400;6.770;2022-08-21T13:55:57;34.10;99.90
32614;DHT22;19031;51.400;6.770;2022-08-21T14:01:00;33.60;99.90
32614;DHT22;19031;51.400;6.770;2022-08-21T14:03:34;33.30;99.90
32614;DHT22;19031;51.400;6.770;2022-08-21T14:06:01;33.30;99.90
32614;DHT22;19031;51.400;6.770;2022-08-21T14:08:33;33.10;99.90
32614;DHT22;19031;51.400;6.770;2022-08-21T14:11:00;33.20;99.90
32614;DHT22;19031;51.400;6.770;2022-08-21T14:13:43;33.20;99.90
32614;DHT22;19031;51.400;6.770;2022-08-21T14:16:23;33.00;99.90
32614;DHT22;19031;51.400;6.770;2022-08-21T14:21:33;32.40;99.90
32614;DHT22;19031;51.400;6.770;2022-08-21T14:26:30;32.00;99.90
32614;DHT22;19031;51.400;6.770;2022-08-21T14:28:59;32.50;99.90
32614;DHT22;19031;51.400;6.770;2022-08-21T14:31:29;32.50;99.90
32614;DHT22;19031;51.400;6.770;2022-08-21T14:33:56;32.60;99.90
32614;DHT22;19031;51.400;6.770;2022-08-21T14:36:22;32.40;99.90
32614;DHT22;19031;51.400;6.770;2022-08-21T14:38:47;32.40;99.90
32614;DHT22;19031;51.400;6.770;2022-08-21T14:41:21;32.50;99.90
32614;DHT22;19031;51.400;6.770;2022-08-21T14:43:48;32.80;99.90
32614;DHT22;19031;51.400;6.770;2022-08-21T14:46:25;33.10;99.90
32614;DHT22;19031;51.400;6.770;2022-08-21T14:48:52;33.30;99.90
32614;DHT22;19031;51.400;6.770;2022-08-21T14:51:18;33.30;99.90
32614;DHT22;19031;51.400;6.770;2022-08-21T14:53:44;33.30;99.90
32614;DHT22;19031;51.400;6.770;2022-08-21T14:56:11;33.30;99.90
32614;DHT22;19031;51.400;6.770;2022-08-21T14:58:46;33.30;99.90
32614;DHT22;19031;51.400;6.770;2022-08-21T15:01:15;33.70;99.90
32614;DHT22;19031;51.400;6.770;2022-08-21T15:03:41;33.80;99.90
32614;DHT22;19031;51.400;6.770;2022-08-21T15:06:08;33.60;99.90
32614;DHT22;19031;51.400;6.770;2022-08-21T15:08:34;33.00;99.90
32614;DHT22;19031;51.400;6.770;2022-08-21T15:11:01;32.60;99.90
32614;DHT22;19031;51.400;6.770;2022-08-21T15:13:28;32.10;99.90
32614;DHT22;19031;51.400;6.770;2022-08-21T15:15:54;31.90;99.90
32614;DHT22;19031;51.400;6.770;2022-08-21T15:18:23;32.10;99.90
32614;DHT22;19031;51.400;6.770;2022-08-21T15:20:49;32.20;99.90
32614;DHT22;19031;51.400;6.770;2022-08-21T15:23:15;32.60;99.90
32614;DHT22;19031;51.400;6.770;2022-08-21T15:25:43;32.90;99.90
32614;DHT22;19031;51.400;6.770;2022-08-21T15:28:10;33.00;99.90
32614;DHT22;19031;51.400;6.770;2022-08-21T15:30:38;32.50;99.90
32614;DHT22;19031;51.400;6.770;2022-08-21T15:33:05;32.30;99.90
32614;DHT22;19031;51.400;6.770;2022-08-21T15:35:30;32.10;99.90
32614;DHT22;19031;51.400;6.770;2022-08-21T15:37:57;31.90;99.90
32614;DHT22;19031;51.400;6.770;2022-08-21T15:40:23;32.00;99.90
32614;DHT22;19031;51.400;6.770;2022-08-21T15:42:50;31.60;99.90
32614;DHT22;19031;51.400;6.770;2022-08-21T15:45:18;31.20;99.90
32614;DHT22;19031;51.400;6.770;2022-08-21T15:47:45;30.90;99.90
32614;DHT22;19031;51.400;6.770;2022-08-21T15:50:12;31.10;99.90
32614;DHT22;19031;51.400;6.770;2022-08-21T15:52:39;31.00;99.90
32614;DHT22;19031;51.400;6.770;2022-08-21T15:55:05;30.90;99.90
32614;DHT22;19031;51.400;6.770;2022-08-21T15:57:32;30.60;99.90
32614;DHT22;19031;51.400;6.770;2022-08-21T16:00:00;30.30;99.90
32614;DHT22;19031;51.400;6.770;2022-08-21T16:02:34;30.30;99.90
32614;DHT22;19031;51.400;6.770;2022-08-21T16:05:01;30.10;99.90
32614;DHT22;19031;51.400;6.770;2022-08-21T16:07:27;29.90;99.90
32614;DHT22;19031;51.400;6.770;2022-08-21T16:09:52;29.80;99.90
32614;DHT22;19031;51.400;6.770;2022-08-21T16:12:23;29.40;99.90
32614;DHT22;19031;51.400;6.770;2022-08-21T16:14:51;29.10;99.90
32614;DHT22;19031;51.400;6.770;2022-08-21T16:17:17;28.60;99.90
32614;DHT22;19031;51.400;6.770;2022-08-21T16:19:43;28.40;99.90
32614;DHT22;19031;51.400;6.770;2022-08-21T16:22:09;28.00;99.90
32614;DHT22;19031;51.400;6.770;2022-08-21T16:24:34;28.00;99.90
32614;DHT22;19031;51.400;6.770;2022-08-21T16:27:02;27.80;99.90
32614;DHT22;19031;51.400;6.770;2022-08-21T16:29:33;27.70;99.90
32614;DHT22;19031;51.400;6.770;2022-08-21T16:31:59;27.60;99.90
32614;DHT22;19031;51.400;6.770;2022-08-21T16:34:25;27.40;99.90
32614;DHT22;19031;51.400;6.770;2022-08-21T16:36:53;27.00;99.90
32614;DHT22;19031;51.400;6.770;2022-08-21T16:39:18;26.80;99.90
32614;DHT22;19031;51.400;6.770;2022-08-21T16:41:44;26.80;99.90
32614;DHT22;19031;51.400;6.770;2022-08-21T16:44:10;26.70;1.00
32614;DHT22;19031;51.400;6.770;2022-08-21T16:46:39;26.80;1.00
32614;DHT22;19031;51.400;6.770;2022-08-21T16:49:06;26.70;1.00
32614;DHT22;19031;51.400;6.770;2022-08-21T16:51:32;26.60;1.00
32614;DHT22;19031;51.400;6.770;2022-08-21T16:53:59;26.60;1.00
32614;DHT22;19031;51.400;6.770;2022-08-21T16:56:25;26.60;1.00
32614;DHT22;19031;51.400;6.770;2022-08-21T16:58:53;26.40;1.00
32614;DHT22;19031;51.400;6.770;2022-08-21T17:01:25;26.30;1.00
32614;DHT22;19031;51.400;6.770;2022-08-21T17:03:52;26.20;1.00
32614;DHT22;19031;51.400;6.770;2022-08-21T17:06:22;26.10;1.00
32614;DHT22;19031;51.400;6.770;2022-08-21T17:08:48;25.90;1.00